createdAt,value
2023-05-12T00:01:56.602Z,4.10
2023-05-12T00:04:58.669Z,4.37
2023-05-12T00:08:00.670Z,3.75
2023-05-12T00:11:02.928Z,4.22
2023-05-12T00:14:04.927Z,3.67
2023-05-12T00:17:07.087Z,4.47
2023-05-12T00:20:09.727Z,3.97
2023-05-12T00:23:12.249Z,3.88
2023-05-12T00:26:14.140Z,4.13
2023-05-12T00:29:18.687Z,4.05
2023-05-12T00:32:20.706Z,6.03
2023-05-12T00:35:22.826Z,5.37
2023-05-12T00:38:24.596Z,4.10
2023-05-12T00:41:26.442Z,4.45
2023-05-12T00:44:28.353Z,3.80
2023-05-12T00:47:30.629Z,4.07
2023-05-12T00:50:32.688Z,2.95
2023-05-12T00:53:47.844Z,3.50
2023-05-12T00:56:51.754Z,3.55
2023-05-12T00:59:55.943Z,3.38
2023-05-12T01:02:58.667Z,3.22
2023-05-12T01:06:17.802Z,4.72
2023-05-12T01:09:20.119Z,3.20
2023-05-12T01:12:23.466Z,2.90
2023-05-12T01:18:27.729Z,3.78
2023-05-12T01:21:30.086Z,4.43
2023-05-12T01:24:36.131Z,4.60
2023-05-12T01:27:40.480Z,5.63
2023-05-12T01:30:44.067Z,4.13
2023-05-12T01:33:48.145Z,3.70
2023-05-12T01:36:50.177Z,4.13
2023-05-12T01:39:53.819Z,4.93
2023-05-12T01:42:56.239Z,6.30
2023-05-12T01:45:58.701Z,6.55
2023-05-12T01:49:00.634Z,9.10
2023-05-12T01:52:02.588Z,7.07
2023-05-12T01:55:07.251Z,7.03
2023-05-12T01:58:15.069Z,5.75
2023-05-12T02:01:18.010Z,5.55
2023-05-12T02:04:19.935Z,4.88
2023-05-12T02:07:23.259Z,6.43
2023-05-12T02:10:25.474Z,6.93
2023-05-12T02:13:27.362Z,6.25
2023-05-12T02:16:29.398Z,4.53
2023-05-12T02:19:31.266Z,4.63
2023-05-12T02:22:34.411Z,5.13
2023-05-12T02:25:36.283Z,4.50
2023-05-12T02:28:38.872Z,4.82
2023-05-12T02:34:51.779Z,4.85
2023-05-12T02:37:53.786Z,5.37
2023-05-12T02:40:55.790Z,5.30
2023-05-12T02:43:59.061Z,7.25
2023-05-12T02:47:01.260Z,6.13
2023-05-12T02:50:04.422Z,5.30
2023-05-12T02:53:07.189Z,5.90
2023-05-12T02:56:09.114Z,6.32
2023-05-12T02:59:10.928Z,5.80
2023-05-12T03:02:13.124Z,5.70
2023-05-12T03:05:15.409Z,4.72
2023-05-12T03:08:17.242Z,4.47
2023-05-12T03:11:19.098Z,5.10
2023-05-12T03:14:21.472Z,4.38
2023-05-12T03:17:23.675Z,5.18
2023-05-12T03:20:25.771Z,5.97
2023-05-12T03:23:27.761Z,6.05
2023-05-12T03:26:30.648Z,4.95
2023-05-12T03:29:32.562Z,5.03
2023-05-12T03:32:34.474Z,6.60
2023-05-12T03:35:36.433Z,5.88
2023-05-12T03:38:38.759Z,5.28
2023-05-12T03:41:40.848Z,4.43
2023-05-12T03:44:43.911Z,5.53
2023-05-12T03:50:48.081Z,2.92
2023-05-12T03:53:50.040Z,3.00
2023-05-12T03:56:53.205Z,5.32
2023-05-12T03:59:55.270Z,3.47
2023-05-12T04:02:57.288Z,3.13
2023-05-12T04:06:00.519Z,5.03
2023-05-12T04:09:02.341Z,3.97
2023-05-12T04:12:04.514Z,4.00
2023-05-12T04:15:06.910Z,4.45
2023-05-12T04:18:10.037Z,3.92
2023-05-12T04:21:14.531Z,4.57
2023-05-12T04:24:16.701Z,4.45
2023-05-12T04:27:18.811Z,3.88
2023-05-12T04:30:21.184Z,5.20
2023-05-12T04:33:24.654Z,4.10
2023-05-12T04:36:27.096Z,4.47
2023-05-12T04:39:29.590Z,4.28
2023-05-12T04:42:32.395Z,4.03
2023-05-12T04:45:34.811Z,4.93
2023-05-12T04:48:41.990Z,4.25
2023-05-12T04:51:44.649Z,3.65
2023-05-12T04:54:46.646Z,4.35
2023-05-12T04:57:48.654Z,3.23
2023-05-12T05:00:50.820Z,3.75
2023-05-12T05:03:52.954Z,4.05
2023-05-12T05:06:55.758Z,4.28
2023-05-12T05:13:01.286Z,3.28
2023-05-12T05:16:03.534Z,4.55
2023-05-12T05:19:15.937Z,3.95
2023-05-12T05:22:26.377Z,2.83
2023-05-12T05:25:28.705Z,4.93
2023-05-12T05:31:33.323Z,3.40
2023-05-12T05:34:35.343Z,2.40
2023-05-12T05:37:37.509Z,3.15
2023-05-12T05:40:52.362Z,5.07
2023-05-12T05:43:56.277Z,4.63
2023-05-12T05:46:58.829Z,3.85
2023-05-12T05:50:04.301Z,2.97
2023-05-12T05:53:08.569Z,3.55
2023-05-12T05:56:10.591Z,3.70
2023-05-12T05:59:14.439Z,2.92
2023-05-12T06:02:16.708Z,3.15
2023-05-12T06:05:18.992Z,3.45
2023-05-12T06:08:21.237Z,3.47
2023-05-12T06:11:23.127Z,4.28
2023-05-12T06:14:24.931Z,2.45
2023-05-12T06:17:26.873Z,2.95
2023-05-12T06:20:28.869Z,3.63
2023-05-12T06:23:30.918Z,3.03
2023-05-12T06:26:32.864Z,4.03
2023-05-12T06:29:35.073Z,4.05
2023-05-12T06:32:37.111Z,3.88
2023-05-12T06:35:40.493Z,3.17
2023-05-12T06:38:42.409Z,2.92
2023-05-12T06:41:44.236Z,2.63
2023-05-12T06:44:55.205Z,4.15
2023-05-12T06:47:57.965Z,3.65
2023-05-12T06:51:02.564Z,3.55
2023-05-12T06:54:07.340Z,2.22
2023-05-12T06:57:09.925Z,2.28
2023-05-12T07:00:13.069Z,2.70
2023-05-12T07:03:15.071Z,2.40
2023-05-12T07:06:17.042Z,2.28
2023-05-12T07:09:18.924Z,3.17
2023-05-12T07:12:20.805Z,2.60
2023-05-12T07:15:23.092Z,1.50
2023-05-12T07:21:27.257Z,3.40
2023-05-12T07:24:29.136Z,2.58
2023-05-12T07:27:31.801Z,2.22
2023-05-12T07:30:33.659Z,2.83
2023-05-12T07:33:36.320Z,4.53
2023-05-12T07:36:38.247Z,4.28
2023-05-12T07:39:40.435Z,2.95
2023-05-12T07:42:42.301Z,1.75
2023-05-12T07:45:45.294Z,3.50
2023-05-12T07:48:47.156Z,3.13
2023-05-12T07:51:49.389Z,3.50
2023-05-12T07:57:52.952Z,2.10
2023-05-12T08:00:54.856Z,4.25
2023-05-12T08:03:57.227Z,2.75
2023-05-12T08:06:59.188Z,2.40
2023-05-12T08:10:01.270Z,3.08
2023-05-12T08:13:03.189Z,2.45
2023-05-12T08:16:05.213Z,2.35
2023-05-12T08:19:07.179Z,2.22
2023-05-12T08:22:09.104Z,3.20
2023-05-12T08:25:12.546Z,2.58
2023-05-12T08:28:15.172Z,1.98
2023-05-12T08:34:18.989Z,3.80
2023-05-12T08:37:21.025Z,2.95
2023-05-12T08:40:25.084Z,2.75
2023-05-12T08:43:38.064Z,2.05
2023-05-12T08:46:40.937Z,2.90
2023-05-12T08:49:44.249Z,2.72
2023-05-12T08:52:46.350Z,2.67
2023-05-12T08:59:10.545Z,3.67
2023-05-12T09:02:14.463Z,2.38
2023-05-12T09:05:16.456Z,2.17
2023-05-12T09:08:18.527Z,3.35
2023-05-12T09:11:22.054Z,3.03
2023-05-12T09:14:29.703Z,2.35
2023-05-12T09:17:31.551Z,2.72
2023-05-12T09:20:33.975Z,1.92
2023-05-12T09:23:35.920Z,3.45
2023-05-12T09:26:53.984Z,1.75
2023-05-12T09:29:59.546Z,3.85
2023-05-12T09:33:09.643Z,2.65
2023-05-12T09:36:12.316Z,2.15
2023-05-12T09:39:14.327Z,2.42
2023-05-12T09:42:16.280Z,3.33
2023-05-12T09:45:19.855Z,2.88
2023-05-12T09:48:22.347Z,4.80
2023-05-12T09:54:30.187Z,2.90
2023-05-12T09:57:34.242Z,2.58
2023-05-12T10:01:05.977Z,2.35
2023-05-12T10:04:01.861Z,4.55
2023-05-12T10:10:08.106Z,3.23
2023-05-12T10:13:14.259Z,2.60
2023-05-12T10:16:16.501Z,2.58
2023-05-12T10:22:21.953Z,4.13
2023-05-12T10:25:23.850Z,3.97
2023-05-12T10:28:25.760Z,1.90
2023-05-12T10:31:28.305Z,3.85
2023-05-12T10:34:34.965Z,2.30
2023-05-12T10:37:39.727Z,2.63
2023-05-12T10:41:01.152Z,3.13
2023-05-12T10:44:03.111Z,4.65
2023-05-12T10:47:16.277Z,5.47
2023-05-12T10:50:28.502Z,2.47
2023-05-12T10:53:47.828Z,2.58
2023-05-12T10:56:53.431Z,2.30
2023-05-12T11:00:01.448Z,5.20
2023-05-12T11:03:13.195Z,3.17
2023-05-12T11:06:19.708Z,2.58
2023-05-12T11:09:22.201Z,3.00
2023-05-12T11:12:26.826Z,2.78
2023-05-12T11:15:30.222Z,2.50
2023-05-12T11:18:32.044Z,2.38
2023-05-12T11:21:35.615Z,2.75
2023-05-12T11:24:42.497Z,2.63
2023-05-12T11:27:50.933Z,2.38
2023-05-12T11:30:55.260Z,3.35
2023-05-12T11:34:11.998Z,2.30
2023-05-12T11:37:14.792Z,3.95
2023-05-12T11:40:18.824Z,3.03
2023-05-12T11:43:22.606Z,3.00
2023-05-12T11:46:26.569Z,2.60
2023-05-12T11:49:30.162Z,2.83
2023-05-12T11:52:32.314Z,2.80
2023-05-12T11:58:36.140Z,2.05
2023-05-12T12:01:46.778Z,2.15
2023-05-12T12:04:48.703Z,2.47
2023-05-12T12:07:50.517Z,2.33
2023-05-12T12:10:52.513Z,2.72
2023-05-12T12:13:58.301Z,3.85
2023-05-12T12:17:00.424Z,2.78
2023-05-12T12:20:02.263Z,3.05
2023-05-12T12:23:04.205Z,2.13
2023-05-12T12:26:06.175Z,2.63
2023-05-12T12:29:08.031Z,3.22
2023-05-12T12:32:09.829Z,3.70
2023-05-12T12:35:13.179Z,2.55
2023-05-12T12:38:14.968Z,2.53
2023-05-12T12:41:17.019Z,1.88
2023-05-12T12:44:18.963Z,2.78
2023-05-12T12:47:20.782Z,3.15
2023-05-12T12:50:24.995Z,2.45
2023-05-12T12:53:27.737Z,2.95
2023-05-12T12:56:30.096Z,2.85
2023-05-12T13:02:34.811Z,2.80
2023-05-12T13:05:36.971Z,2.33
2023-05-12T13:08:38.738Z,2.00
2023-05-12T13:11:40.709Z,2.17
2023-05-12T13:14:42.633Z,1.90
2023-05-12T13:17:46.604Z,2.03
2023-05-12T13:20:48.552Z,2.83
2023-05-12T13:23:50.382Z,2.78
2023-05-12T13:26:52.358Z,2.75
2023-05-12T13:29:54.258Z,2.60
2023-05-12T13:32:56.280Z,2.28
2023-05-12T13:35:59.093Z,3.38
2023-05-12T13:39:01.926Z,2.03
2023-05-12T13:42:04.606Z,2.15
2023-05-12T13:45:07.086Z,1.63
2023-05-12T13:48:09.246Z,2.28
2023-05-12T13:54:13.014Z,2.28
2023-05-12T13:57:14.857Z,2.05
2023-05-12T14:00:17.412Z,2.25
2023-05-12T14:03:19.281Z,1.88
2023-05-12T14:06:21.090Z,2.10
2023-05-12T14:09:23.434Z,2.70
2023-05-12T14:12:25.898Z,1.95
2023-05-12T14:15:40.483Z,1.65
2023-05-12T14:18:49.675Z,2.37
2023-05-12T14:21:51.560Z,2.05
2023-05-12T14:24:53.928Z,2.00
2023-05-12T14:27:56.309Z,2.42
2023-05-12T14:30:58.361Z,2.08
2023-05-12T14:34:00.364Z,2.30
2023-05-12T14:37:02.430Z,2.42
2023-05-12T14:40:05.443Z,3.33
2023-05-12T14:43:07.303Z,4.25
2023-05-12T14:46:09.337Z,2.65
2023-05-12T14:49:13.986Z,2.97
2023-05-12T14:52:16.024Z,2.90
2023-05-12T14:55:18.057Z,2.75
2023-05-12T14:58:21.966Z,2.25
2023-05-12T15:01:23.895Z,1.75
2023-05-12T15:04:27.270Z,2.75
2023-05-12T15:07:29.213Z,1.13
2023-05-12T15:10:31.835Z,2.80
2023-05-12T15:13:33.730Z,2.33
2023-05-12T15:16:35.980Z,2.05
2023-05-12T15:22:39.609Z,4.45
2023-05-12T15:25:41.849Z,1.98
2023-05-12T15:31:45.560Z,2.40
2023-05-12T15:34:47.539Z,2.60
2023-05-12T15:37:49.428Z,1.15
2023-05-12T15:40:51.886Z,1.42
2023-05-12T15:43:53.747Z,1.75
2023-05-12T15:46:55.846Z,1.77
2023-05-12T15:49:57.753Z,1.17
2023-05-12T15:52:59.649Z,2.63
2023-05-12T15:56:02.757Z,1.60
2023-05-12T15:59:05.397Z,1.10
2023-05-12T16:02:07.842Z,2.03
2023-05-12T16:05:10.069Z,1.42
2023-05-12T16:08:12.020Z,1.77
2023-05-12T16:11:14.124Z,1.50
2023-05-12T16:14:16.221Z,2.72
2023-05-12T16:17:18.094Z,1.98
2023-05-12T16:20:19.997Z,2.17
2023-05-12T16:23:21.875Z,3.20
2023-05-12T16:26:23.981Z,2.28
2023-05-12T16:29:26.272Z,2.63
2023-05-12T16:32:28.159Z,2.30
2023-05-12T16:35:30.087Z,2.97
2023-05-12T16:38:32.472Z,2.67
2023-05-12T16:44:36.201Z,2.55
2023-05-12T16:47:38.439Z,5.70
2023-05-12T16:50:40.294Z,4.30
2023-05-12T16:53:42.687Z,6.50
2023-05-12T16:59:48.241Z,5.85
2023-05-12T17:02:50.601Z,6.22
2023-05-12T17:05:52.895Z,6.22
2023-05-12T17:08:54.847Z,5.18
2023-05-12T17:11:56.730Z,4.97
2023-05-12T17:15:06.826Z,5.30
2023-05-12T17:18:09.307Z,4.05
2023-05-12T17:21:11.669Z,3.65
2023-05-12T17:24:14.566Z,3.55
2023-05-12T17:27:16.517Z,3.83
2023-05-12T17:30:18.792Z,4.03
2023-05-12T17:33:20.671Z,4.93
2023-05-12T17:36:22.624Z,3.20
2023-05-12T17:39:24.521Z,4.28
2023-05-12T17:42:31.397Z,4.05
2023-05-12T17:45:33.741Z,4.25
2023-05-12T17:48:35.931Z,5.07
2023-05-12T17:51:37.957Z,6.70
2023-05-12T17:54:39.872Z,11.40
2023-05-12T17:57:42.078Z,15.15
2023-05-12T18:00:43.916Z,16.33
2023-05-12T18:03:46.046Z,25.08
2023-05-12T18:06:50.253Z,40.80
2023-05-12T18:09:52.070Z,37.55
2023-05-12T18:12:55.430Z,46.37
2023-05-12T18:15:57.431Z,46.85
2023-05-12T18:18:59.415Z,50.83
2023-05-12T18:22:01.402Z,46.85
2023-05-12T18:25:03.317Z,46.65
2023-05-12T18:28:06.760Z,54.90
2023-05-12T18:31:15.916Z,51.25
2023-05-12T18:34:18.459Z,51.42
2023-05-12T18:37:20.321Z,60.30
2023-05-12T18:40:22.275Z,51.33
2023-05-12T18:43:24.166Z,50.65
2023-05-12T18:46:27.403Z,40.08
2023-05-12T18:49:30.679Z,38.37
2023-05-12T18:52:32.514Z,32.33
2023-05-12T18:55:34.387Z,36.77
2023-05-12T18:58:36.305Z,31.60
2023-05-12T19:01:38.316Z,25.50
2023-05-12T19:04:40.223Z,29.95
2023-05-12T19:07:42.026Z,28.87
2023-05-12T19:10:43.996Z,32.28
2023-05-12T19:13:47.328Z,21.30
2023-05-12T19:16:49.321Z,16.98
2023-05-12T19:19:51.292Z,19.67
2023-05-12T19:22:53.229Z,15.87
2023-05-12T19:25:55.182Z,14.23
2023-05-12T19:28:57.131Z,13.63
2023-05-12T19:31:58.946Z,14.20
2023-05-12T19:35:01.106Z,11.50
2023-05-12T19:38:02.930Z,10.23
2023-05-12T19:41:04.784Z,11.00
2023-05-12T19:44:06.742Z,10.90
2023-05-12T19:47:09.410Z,13.37
2023-05-12T19:50:11.521Z,13.20
2023-05-12T19:53:13.483Z,12.68
2023-05-12T19:56:15.499Z,14.37
2023-05-12T19:59:18.723Z,12.07
2023-05-12T20:02:20.906Z,9.88
2023-05-12T20:05:23.045Z,11.20
2023-05-12T20:08:24.947Z,9.35
2023-05-12T20:11:27.403Z,8.93
2023-05-12T20:14:29.259Z,9.80
2023-05-12T20:17:31.210Z,10.35
2023-05-12T20:20:33.057Z,9.53
2023-05-12T20:23:34.982Z,9.18
2023-05-12T20:26:36.967Z,8.93
2023-05-12T20:29:38.764Z,8.40
2023-05-12T20:32:40.723Z,6.93
2023-05-12T20:35:42.647Z,7.73
2023-05-12T20:38:44.520Z,10.50
2023-05-12T20:41:46.681Z,10.10
2023-05-12T20:44:48.730Z,9.38
2023-05-12T20:47:50.614Z,10.20
2023-05-12T20:50:53.112Z,10.87
2023-05-12T20:53:55.207Z,9.07
2023-05-12T20:56:57.240Z,11.02
2023-05-12T20:59:59.102Z,9.48
2023-05-12T21:03:02.968Z,9.18
2023-05-12T21:06:05.613Z,10.43
2023-05-12T21:09:07.432Z,9.85
2023-05-12T21:12:09.608Z,9.38
2023-05-12T21:15:11.861Z,8.48
2023-05-12T21:18:13.727Z,13.45
2023-05-12T21:21:16.063Z,12.77
2023-05-12T21:24:18.006Z,12.02
2023-05-12T21:27:19.809Z,12.87
2023-05-12T21:30:21.821Z,11.18
2023-05-12T21:33:23.863Z,12.05
2023-05-12T21:36:25.772Z,10.52
2023-05-12T21:39:28.024Z,8.68
2023-05-12T21:42:30.117Z,14.20
2023-05-12T21:45:32.103Z,10.17
2023-05-12T21:48:34.547Z,13.80
2023-05-12T21:51:36.411Z,18.20
2023-05-12T21:54:38.350Z,13.00
2023-05-12T21:57:40.459Z,12.55
2023-05-12T22:00:42.289Z,13.70
2023-05-12T22:03:44.423Z,13.60
2023-05-12T22:06:46.467Z,15.35
2023-05-12T22:09:48.497Z,14.02
2023-05-12T22:12:50.344Z,14.17
2023-05-12T22:15:52.232Z,14.23
2023-05-12T22:18:54.196Z,11.18
2023-05-12T22:21:57.136Z,12.50
2023-05-12T22:28:00.792Z,8.85
2023-05-12T22:31:02.742Z,6.93
2023-05-12T22:34:04.548Z,6.63
2023-05-12T22:37:06.453Z,8.35
2023-05-12T22:40:09.020Z,7.35
2023-05-12T22:43:12.746Z,8.27
2023-05-12T22:46:14.583Z,7.88
2023-05-12T22:49:16.439Z,5.88
2023-05-12T22:52:18.314Z,8.27
2023-05-12T22:55:20.255Z,4.78
2023-05-12T22:58:22.182Z,6.13
2023-05-12T23:01:24.051Z,5.47
2023-05-12T23:04:26.154Z,4.83
2023-05-12T23:07:28.026Z,4.83
2023-05-12T23:10:29.967Z,5.55
2023-05-12T23:13:31.885Z,5.43
2023-05-12T23:16:33.804Z,4.43
2023-05-12T23:19:37.055Z,5.80
2023-05-12T23:22:38.898Z,5.03
2023-05-12T23:25:42.226Z,5.43
2023-05-12T23:28:44.087Z,4.38
2023-05-12T23:31:46.139Z,3.97
2023-05-12T23:34:48.020Z,4.77
2023-05-12T23:37:49.838Z,4.32
2023-05-12T23:40:51.651Z,3.55
2023-05-12T23:43:53.507Z,4.18
2023-05-12T23:46:55.498Z,3.83
2023-05-12T23:49:57.323Z,4.17
2023-05-12T23:52:59.174Z,4.20
2023-05-12T23:56:02.058Z,4.95
2023-05-12T23:59:03.964Z,3.90
